THY9MZ UAAA-LYPG
Flight info
| Callsign | THY9MZ |
|---|---|
| Flight time | N/A |
| Altitude | 32000 |
| Route | EKLAT1B EKLAT DCT TOMGO DCT TIGTA/K0852F320 DCT KORAG DCT BALUN/N0458F320 DCT LEYLA/N0456F340 DCT LAGAS DCT NOLGA DCT TBN DCT CRM DCT EKSUK DCT NEGEM DCT SKJ DCT MAVAR DCT RINAV DCT RETRA |
| Aircraft | A321/M-SDE3FGHIRWY/LB1 |
Departure
| Time | 2026-04-21 10:53 |
|---|---|
| Airport | Almaty International Airport (UAAA) |
Arrival
| Time | N/A |
|---|---|
| Airport | Podgorica Airport / Podgorica Golubovci Airbase (LYPG) |
| Time | Latitude | Longitude | Altitude | Speed | Heading |
|---|---|---|---|---|---|
| 2026-04-21 10:39 | 43.34447 | 77.01448 | 2226 ft | 0 kts | 246° |
| 2026-04-21 10:44 | 43.34448 | 77.01451 | 2226 ft | 2 kts | 246° |
| 2026-04-21 10:44 | 43.34456 | 77.01474 | 2222 ft | 3 kts | 240° |
| 2026-04-21 10:44 | 43.34467 | 77.01497 | 2224 ft | 3 kts | 228° |
| 2026-04-21 10:44 | 43.34481 | 77.01515 | 2222 ft | 3 kts | 206° |
| 2026-04-21 10:45 | 43.34496 | 77.01522 | 2222 ft | 2 kts | 166° |
| 2026-04-21 10:45 | 43.34502 | 77.01520 | 2221 ft | 0 kts | 155° |
| 2026-04-21 10:48 | 43.34493 | 77.01526 | 2224 ft | 5 kts | 155° |
| 2026-04-21 10:48 | 43.34445 | 77.01555 | 2224 ft | 8 kts | 155° |
| 2026-04-21 10:49 | 43.34393 | 77.01588 | 2223 ft | 8 kts | 155° |
| 2026-04-21 10:49 | 43.34343 | 77.01619 | 2226 ft | 8 kts | 155° |
| 2026-04-21 10:49 | 43.34296 | 77.01648 | 2226 ft | 7 kts | 155° |
| 2026-04-21 10:49 | 43.34258 | 77.01672 | 2228 ft | 5 kts | 155° |
| 2026-04-21 10:50 | 43.34235 | 77.01687 | 2229 ft | 2 kts | 155° |
| 2026-04-21 10:50 | 43.34225 | 77.01693 | 2229 ft | 2 kts | 155° |
| 2026-04-21 10:50 | 43.34193 | 77.01713 | 2231 ft | 8 kts | 155° |
| 2026-04-21 10:50 | 43.34155 | 77.01776 | 2232 ft | 9 kts | 85° |
| 2026-04-21 10:51 | 43.34173 | 77.01827 | 2232 ft | 0 kts | 55° |
| 2026-04-21 10:52 | 43.34196 | 77.01874 | 2232 ft | 30 kts | 55° |
| 2026-04-21 10:52 | 43.34450 | 77.02387 | 2234 ft | 98 kts | 56° |
| 2026-04-21 10:52 | 43.34943 | 77.03392 | 2233 ft | 153 kts | 56° |
| 2026-04-21 10:53 | 43.35634 | 77.04793 | 2271 ft | 196 kts | 56° |
| 2026-04-21 10:53 | 43.36391 | 77.06301 | 3118 ft | 186 kts | 54° |
| 2026-04-21 10:53 | 43.37120 | 77.07725 | 4030 ft | 176 kts | 55° |
| 2026-04-21 10:53 | 43.37842 | 77.09110 | 4328 ft | 190 kts | 54° |
| 2026-04-21 10:54 | 43.38664 | 77.10655 | 4572 ft | 208 kts | 53° |
| 2026-04-21 10:54 | 43.39552 | 77.12344 | 4717 ft | 228 kts | 53° |
| 2026-04-21 10:54 | 43.40520 | 77.14205 | 4814 ft | 250 kts | 54° |
| 2026-04-21 10:54 | 43.41655 | 77.16087 | 5092 ft | 264 kts | 34° |
| 2026-04-21 10:55 | 43.43375 | 77.16967 | 5513 ft | 271 kts | 0° |
| 2026-04-21 10:55 | 43.45233 | 77.16476 | 6012 ft | 276 kts | 338° |
| 2026-04-21 10:55 | 43.46980 | 77.15344 | 6557 ft | 279 kts | 331° |
| 2026-04-21 10:55 | 43.48689 | 77.14038 | 7133 ft | 282 kts | 329° |
| 2026-04-21 10:56 | 43.50420 | 77.12742 | 7717 ft | 285 kts | 331° |
| 2026-04-21 10:56 | 43.52088 | 77.11279 | 8257 ft | 285 kts | 316° |
| 2026-04-21 10:56 | 43.53367 | 77.09199 | 8827 ft | 285 kts | 298° |
| 2026-04-21 10:56 | 43.54134 | 77.06697 | 9395 ft | 284 kts | 281° |
| 2026-04-21 10:57 | 43.54348 | 77.04000 | 9978 ft | 284 kts | 271° |
| 2026-04-21 10:57 | 43.54461 | 77.01219 | 10200 ft | 299 kts | 272° |
| 2026-04-21 10:57 | 43.54603 | 76.98273 | 10327 ft | 317 kts | 272° |
| 2026-04-21 10:57 | 43.54768 | 76.95159 | 10447 ft | 334 kts | 272° |
| 2026-04-21 10:58 | 43.54945 | 76.91896 | 10567 ft | 350 kts | 273° |
| 2026-04-21 10:58 | 43.55128 | 76.88512 | 10913 ft | 357 kts | 273° |
| 2026-04-21 10:58 | 43.55311 | 76.85093 | 11441 ft | 359 kts | 272° |
| 2026-04-21 10:58 | 43.55491 | 76.81663 | 12013 ft | 359 kts | 272° |
| 2026-04-21 10:59 | 43.55670 | 76.78224 | 12577 ft | 360 kts | 273° |
| 2026-04-21 10:59 | 43.55845 | 76.74775 | 13148 ft | 360 kts | 273° |
| 2026-04-21 10:59 | 43.56016 | 76.71324 | 13721 ft | 361 kts | 273° |
| 2026-04-21 10:59 | 43.56186 | 76.67867 | 14234 ft | 362 kts | 273° |
| 2026-04-21 11:00 | 43.56358 | 76.64396 | 14726 ft | 364 kts | 273° |
| 2026-04-21 11:00 | 43.56533 | 76.60901 | 15201 ft | 366 kts | 273° |
| 2026-04-21 11:00 | 43.56708 | 76.57389 | 15684 ft | 368 kts | 273° |
| 2026-04-21 11:00 | 43.56882 | 76.53857 | 16154 ft | 370 kts | 273° |
| 2026-04-21 11:01 | 43.57055 | 76.50301 | 16618 ft | 373 kts | 273° |
| 2026-04-21 11:01 | 43.57227 | 76.46722 | 17076 ft | 375 kts | 273° |
| 2026-04-21 11:01 | 43.57401 | 76.43123 | 17536 ft | 378 kts | 273° |
| 2026-04-21 11:02 | 43.57749 | 76.35850 | 18398 ft | 382 kts | 273° |
| 2026-04-21 11:02 | 43.57920 | 76.32184 | 18776 ft | 385 kts | 272° |
| 2026-04-21 11:02 | 43.58089 | 76.28541 | 19140 ft | 387 kts | 272° |
| 2026-04-21 11:02 | 43.58261 | 76.24826 | 19503 ft | 389 kts | 272° |
| 2026-04-21 11:03 | 43.58433 | 76.21087 | 19855 ft | 391 kts | 272° |
| 2026-04-21 11:03 | 43.58605 | 76.17323 | 20208 ft | 394 kts | 272° |
| 2026-04-21 11:03 | 43.58776 | 76.13545 | 20554 ft | 396 kts | 272° |
| 2026-04-21 11:03 | 43.58948 | 76.09751 | 20907 ft | 398 kts | 272° |
| 2026-04-21 11:04 | 43.59119 | 76.05930 | 21254 ft | 400 kts | 272° |
| 2026-04-21 11:04 | 43.59288 | 76.02094 | 21598 ft | 401 kts | 272° |
| 2026-04-21 11:04 | 43.59455 | 75.98246 | 21947 ft | 403 kts | 272° |
| 2026-04-21 11:04 | 43.59623 | 75.94378 | 22287 ft | 404 kts | 272° |
| 2026-04-21 11:05 | 43.59793 | 75.90494 | 22626 ft | 406 kts | 272° |
| 2026-04-21 11:05 | 43.59962 | 75.86602 | 22965 ft | 407 kts | 272° |
| 2026-04-21 11:05 | 43.60128 | 75.82702 | 23305 ft | 408 kts | 272° |
| 2026-04-21 11:05 | 43.60294 | 75.78775 | 23613 ft | 410 kts | 272° |
| 2026-04-21 11:06 | 43.60459 | 75.74841 | 23871 ft | 412 kts | 272° |
| 2026-04-21 11:06 | 43.60620 | 75.70942 | 24135 ft | 413 kts | 272° |
| 2026-04-21 11:06 | 43.60782 | 75.66976 | 24391 ft | 415 kts | 272° |
| 2026-04-21 11:06 | 43.60944 | 75.62998 | 24650 ft | 417 kts | 272° |
| 2026-04-21 11:07 | 43.61105 | 75.58995 | 24905 ft | 418 kts | 272° |
| 2026-04-21 11:07 | 43.61266 | 75.54982 | 25147 ft | 419 kts | 272° |
| 2026-04-21 11:07 | 43.61425 | 75.50957 | 25409 ft | 421 kts | 272° |
| 2026-04-21 11:07 | 43.61585 | 75.46919 | 25652 ft | 422 kts | 272° |
| 2026-04-21 11:08 | 43.61746 | 75.42870 | 25889 ft | 424 kts | 272° |
| 2026-04-21 11:08 | 43.61906 | 75.38808 | 26135 ft | 425 kts | 272° |
| 2026-04-21 11:08 | 43.62066 | 75.34723 | 26374 ft | 426 kts | 272° |
| 2026-04-21 11:08 | 43.62223 | 75.30635 | 26613 ft | 428 kts | 272° |
| 2026-04-21 11:09 | 43.62379 | 75.26525 | 26852 ft | 429 kts | 272° |
| 2026-04-21 11:09 | 43.62532 | 75.22405 | 27097 ft | 430 kts | 272° |
| 2026-04-21 11:09 | 43.62683 | 75.18273 | 27394 ft | 430 kts | 272° |
| 2026-04-21 11:09 | 43.62832 | 75.14167 | 27764 ft | 428 kts | 272° |
| 2026-04-21 11:10 | 43.62979 | 75.10059 | 28139 ft | 427 kts | 272° |
| 2026-04-21 11:10 | 43.63123 | 75.05967 | 28518 ft | 425 kts | 272° |
| 2026-04-21 11:10 | 43.63267 | 75.01904 | 28913 ft | 423 kts | 272° |
| 2026-04-21 11:10 | 43.63409 | 74.97863 | 29303 ft | 421 kts | 272° |
| 2026-04-21 11:11 | 43.63552 | 74.93840 | 29707 ft | 418 kts | 272° |
| 2026-04-21 11:11 | 43.63692 | 74.89849 | 30088 ft | 415 kts | 272° |
| 2026-04-21 11:11 | 43.63829 | 74.85884 | 30434 ft | 412 kts | 272° |
| 2026-04-21 11:11 | 43.63963 | 74.81950 | 30798 ft | 408 kts | 273° |
| 2026-04-21 11:12 | 43.64095 | 74.78059 | 31146 ft | 405 kts | 273° |
| 2026-04-21 11:12 | 43.64221 | 74.74244 | 31485 ft | 401 kts | 273° |
| 2026-04-21 11:12 | 43.64343 | 74.70411 | 31830 ft | 398 kts | 273° |
| 2026-04-21 11:12 | 43.64465 | 74.66604 | 31939 ft | 396 kts | 273° |
| 2026-04-21 11:13 | 43.64712 | 74.59026 | 31952 ft | 394 kts | 273° |
| 2026-04-21 11:13 | 43.64946 | 74.51493 | 31948 ft | 392 kts | 273° |
| 2026-04-21 11:14 | 43.65179 | 74.43991 | 31950 ft | 390 kts | 274° |
| 2026-04-21 11:14 | 43.65403 | 74.36516 | 31949 ft | 389 kts | 274° |
| 2026-04-21 11:15 | 43.65622 | 74.29065 | 31952 ft | 388 kts | 274° |
| 2026-04-21 11:15 | 43.65804 | 74.22831 | 31955 ft | 388 kts | 274° |
| 2026-04-21 11:16 | 43.66010 | 74.15443 | 31952 ft | 387 kts | 274° |
| 2026-04-21 11:16 | 43.66212 | 74.08011 | 31950 ft | 386 kts | 273° |
| 2026-04-21 11:17 | 43.66404 | 74.00606 | 31947 ft | 386 kts | 274° |
| 2026-04-21 11:17 | 43.66601 | 73.93206 | 31952 ft | 385 kts | 274° |
| 2026-04-21 11:18 | 43.66792 | 73.85831 | 31944 ft | 384 kts | 274° |
| 2026-04-21 11:18 | 43.66975 | 73.78468 | 31945 ft | 383 kts | 273° |
| 2026-04-21 11:19 | 43.67151 | 73.71114 | 31940 ft | 382 kts | 273° |
| 2026-04-21 11:19 | 43.67328 | 73.63782 | 31940 ft | 381 kts | 273° |
| 2026-04-21 11:20 | 43.67496 | 73.56472 | 31941 ft | 381 kts | 273° |
| 2026-04-21 11:20 | 43.67659 | 73.49172 | 31940 ft | 380 kts | 274° |
| 2026-04-21 11:21 | 43.67811 | 73.41931 | 31936 ft | 379 kts | 273° |
| 2026-04-21 11:21 | 43.67964 | 73.34661 | 31938 ft | 378 kts | 274° |
| 2026-04-21 11:22 | 43.68117 | 73.27398 | 31934 ft | 378 kts | 273° |
| 2026-04-21 11:22 | 43.68260 | 73.20150 | 31930 ft | 377 kts | 273° |
| 2026-04-21 11:23 | 43.68393 | 73.12923 | 31930 ft | 376 kts | 273° |
| 2026-04-21 11:23 | 43.68532 | 73.05704 | 31929 ft | 375 kts | 273° |
| 2026-04-21 11:24 | 43.68665 | 72.98502 | 31927 ft | 375 kts | 273° |
| 2026-04-21 11:24 | 43.68790 | 72.91311 | 31926 ft | 374 kts | 273° |
| 2026-04-21 11:25 | 43.68913 | 72.84127 | 31925 ft | 374 kts | 273° |
| 2026-04-21 11:25 | 43.69027 | 72.76977 | 31899 ft | 378 kts | 274° |
| 2026-04-21 11:26 | 43.69141 | 72.69623 | 31905 ft | 388 kts | 274° |
| 2026-04-21 11:26 | 43.69253 | 72.62071 | 31896 ft | 398 kts | 274° |
| 2026-04-21 11:27 | 43.69361 | 72.54339 | 31899 ft | 405 kts | 273° |
| 2026-04-21 11:27 | 43.69462 | 72.46561 | 31894 ft | 405 kts | 273° |
| 2026-04-21 11:28 | 43.69558 | 72.38775 | 31892 ft | 405 kts | 273° |
| 2026-04-21 11:28 | 43.69658 | 72.31002 | 31889 ft | 404 kts | 273° |
| 2026-04-21 11:29 | 43.69745 | 72.23229 | 31888 ft | 405 kts | 272° |
| 2026-04-21 11:29 | 43.69828 | 72.15455 | 31890 ft | 404 kts | 272° |
| 2026-04-21 11:30 | 43.69907 | 72.07682 | 31892 ft | 404 kts | 272° |
| 2026-04-21 11:30 | 43.69977 | 71.99970 | 31891 ft | 404 kts | 272° |
| 2026-04-21 11:31 | 43.70044 | 71.92208 | 31892 ft | 404 kts | 272° |
| 2026-04-21 11:31 | 43.70107 | 71.84457 | 31884 ft | 403 kts | 272° |
| 2026-04-21 11:32 | 43.70165 | 71.76699 | 31888 ft | 403 kts | 272° |
| 2026-04-21 11:32 | 43.70218 | 71.68959 | 31889 ft | 403 kts | 271° |
| 2026-04-21 11:33 | 43.70265 | 71.61228 | 31888 ft | 402 kts | 271° |
| 2026-04-21 11:33 | 43.70305 | 71.53504 | 31887 ft | 402 kts | 271° |
| 2026-04-21 11:34 | 43.70336 | 71.45793 | 31884 ft | 401 kts | 271° |
| 2026-04-21 11:34 | 43.70360 | 71.38155 | 31847 ft | 387 kts | 271° |
| 2026-04-21 11:35 | 43.70388 | 71.30938 | 31863 ft | 374 kts | 271° |
| 2026-04-21 11:35 | 43.70416 | 71.23754 | 31866 ft | 374 kts | 271° |
| 2026-04-21 11:36 | 43.70425 | 71.16564 | 31866 ft | 374 kts | 271° |
| 2026-04-21 11:36 | 43.70430 | 71.09373 | 31861 ft | 374 kts | 271° |
| 2026-04-21 11:37 | 43.70441 | 71.02179 | 31860 ft | 374 kts | 271° |
| 2026-04-21 11:37 | 43.70449 | 70.94982 | 31864 ft | 375 kts | 270° |
| 2026-04-21 11:38 | 43.70443 | 70.87774 | 31862 ft | 375 kts | 270° |
| 2026-04-21 11:38 | 43.70433 | 70.80567 | 31859 ft | 375 kts | 270° |
| 2026-04-21 11:39 | 43.70420 | 70.73361 | 31855 ft | 375 kts | 270° |
| 2026-04-21 11:39 | 43.70400 | 70.66149 | 31856 ft | 375 kts | 270° |
| 2026-04-21 11:40 | 43.70377 | 70.58931 | 31859 ft | 376 kts | 270° |
| 2026-04-21 11:40 | 43.70359 | 70.51709 | 31857 ft | 376 kts | 270° |
| 2026-04-21 11:41 | 43.70329 | 70.44484 | 31857 ft | 376 kts | 270° |
| 2026-04-21 11:41 | 43.70292 | 70.37309 | 31858 ft | 376 kts | 270° |
| 2026-04-21 11:42 | 43.70257 | 70.30085 | 31856 ft | 376 kts | 270° |
| 2026-04-21 11:42 | 43.70210 | 70.22852 | 31857 ft | 376 kts | 270° |
| 2026-04-21 11:43 | 43.70160 | 70.15621 | 31857 ft | 376 kts | 269° |
| 2026-04-21 11:43 | 43.70104 | 70.08389 | 31856 ft | 376 kts | 269° |
| 2026-04-21 11:44 | 43.70045 | 70.01168 | 31849 ft | 376 kts | 269° |
| 2026-04-21 11:44 | 43.69985 | 69.93950 | 31853 ft | 376 kts | 269° |
| 2026-04-21 11:45 | 43.69918 | 69.86778 | 31854 ft | 376 kts | 269° |
| 2026-04-21 11:45 | 43.69842 | 69.79566 | 31853 ft | 375 kts | 269° |
| 2026-04-21 11:46 | 43.69773 | 69.72357 | 31851 ft | 375 kts | 269° |
| 2026-04-21 11:46 | 43.69695 | 69.65153 | 31848 ft | 375 kts | 269° |
| 2026-04-21 11:47 | 43.69605 | 69.57949 | 31845 ft | 375 kts | 269° |
| 2026-04-21 11:47 | 43.69514 | 69.50752 | 31842 ft | 375 kts | 269° |
| 2026-04-21 11:48 | 43.69418 | 69.43553 | 31846 ft | 374 kts | 268° |
| 2026-04-21 11:48 | 43.69322 | 69.36358 | 31841 ft | 374 kts | 268° |
| 2026-04-21 11:49 | 43.69223 | 69.29163 | 31842 ft | 374 kts | 268° |
| 2026-04-21 11:49 | 43.69120 | 69.21974 | 31842 ft | 374 kts | 268° |
| 2026-04-21 11:50 | 43.69008 | 69.14786 | 31842 ft | 374 kts | 268° |
| 2026-04-21 11:50 | 43.68890 | 69.07604 | 31843 ft | 374 kts | 268° |
| 2026-04-21 11:51 | 43.68768 | 69.00415 | 31841 ft | 374 kts | 268° |
| 2026-04-21 11:51 | 43.68644 | 68.93271 | 31841 ft | 375 kts | 268° |
| 2026-04-21 11:52 | 43.68511 | 68.86066 | 31844 ft | 375 kts | 268° |
| 2026-04-21 11:52 | 43.68380 | 68.78857 | 31840 ft | 375 kts | 268° |
| 2026-04-21 11:53 | 43.68236 | 68.71651 | 31837 ft | 375 kts | 267° |
| 2026-04-21 11:53 | 43.68094 | 68.64440 | 31832 ft | 376 kts | 267° |
| 2026-04-21 11:54 | 43.67947 | 68.57227 | 31832 ft | 376 kts | 267° |
| 2026-04-21 11:54 | 43.67794 | 68.50010 | 31834 ft | 376 kts | 267° |
| 2026-04-21 11:55 | 43.67638 | 68.42786 | 31828 ft | 376 kts | 267° |
| 2026-04-21 11:55 | 43.67477 | 68.35574 | 31818 ft | 377 kts | 268° |
| 2026-04-21 11:56 | 43.67308 | 68.28324 | 31816 ft | 377 kts | 267° |
| 2026-04-21 11:56 | 43.67128 | 68.21122 | 31808 ft | 377 kts | 266° |
| 2026-04-21 11:57 | 43.66955 | 68.13876 | 31805 ft | 378 kts | 267° |
| 2026-04-21 11:57 | 43.66784 | 68.06625 | 31803 ft | 378 kts | 266° |
| 2026-04-21 11:58 | 43.66597 | 67.99334 | 31798 ft | 378 kts | 266° |
| 2026-04-21 11:58 | 43.66401 | 67.92075 | 31792 ft | 378 kts | 266° |
| 2026-04-21 11:59 | 43.66200 | 67.84816 | 31789 ft | 379 kts | 266° |
| 2026-04-21 11:59 | 43.66002 | 67.77576 | 31787 ft | 379 kts | 266° |
| 2026-04-21 12:00 | 43.65803 | 67.70310 | 31782 ft | 379 kts | 266° |
| 2026-04-21 12:00 | 43.65595 | 67.63039 | 31779 ft | 380 kts | 266° |
| 2026-04-21 12:01 | 43.65382 | 67.55714 | 31778 ft | 380 kts | 266° |
| 2026-04-21 12:01 | 43.65163 | 67.48433 | 31776 ft | 380 kts | 266° |
| 2026-04-21 12:02 | 43.64830 | 67.37538 | 31769 ft | 380 kts | 266° |
| 2026-04-21 12:03 | 43.64602 | 67.30250 | 31772 ft | 380 kts | 265° |
| 2026-04-21 12:03 | 43.64360 | 67.22943 | 31778 ft | 380 kts | 265° |
| 2026-04-21 12:04 | 43.64114 | 67.15663 | 31773 ft | 381 kts | 265° |
| 2026-04-21 12:04 | 43.63870 | 67.08363 | 31769 ft | 381 kts | 265° |
| 2026-04-21 12:05 | 43.63668 | 67.02266 | 31769 ft | 381 kts | 265° |
| 2026-04-21 12:05 | 43.63412 | 66.94971 | 31765 ft | 381 kts | 265° |
| 2026-04-21 12:06 | 43.63153 | 66.87660 | 31759 ft | 382 kts | 265° |
| 2026-04-21 12:06 | 43.62892 | 66.80319 | 31756 ft | 382 kts | 265° |
| 2026-04-21 12:07 | 43.62623 | 66.73022 | 31754 ft | 383 kts | 265° |
| 2026-04-21 12:07 | 43.62352 | 66.65686 | 31756 ft | 383 kts | 265° |
| 2026-04-21 12:08 | 43.62070 | 66.58324 | 31758 ft | 383 kts | 264° |
| 2026-04-21 12:08 | 43.61784 | 66.50949 | 31754 ft | 384 kts | 264° |
| 2026-04-21 12:09 | 43.61498 | 66.43622 | 31755 ft | 384 kts | 264° |
| 2026-04-21 12:09 | 43.61202 | 66.36268 | 31752 ft | 384 kts | 264° |
| 2026-04-21 12:10 | 43.60907 | 66.28897 | 31754 ft | 385 kts | 264° |
| 2026-04-21 12:10 | 43.60603 | 66.21564 | 31758 ft | 385 kts | 264° |
| 2026-04-21 12:11 | 43.60290 | 66.14170 | 31758 ft | 385 kts | 264° |
| 2026-04-21 12:11 | 43.59982 | 66.06825 | 31755 ft | 385 kts | 264° |
| 2026-04-21 12:12 | 43.59664 | 65.99422 | 31756 ft | 385 kts | 264° |
| 2026-04-21 12:12 | 43.59340 | 65.92053 | 31760 ft | 385 kts | 264° |
| 2026-04-21 12:13 | 43.59010 | 65.84683 | 31760 ft | 386 kts | 263° |
| 2026-04-21 12:13 | 43.58672 | 65.77277 | 31759 ft | 386 kts | 263° |
| 2026-04-21 12:14 | 43.58336 | 65.69908 | 31758 ft | 386 kts | 263° |
| 2026-04-21 12:14 | 43.57998 | 65.62510 | 31762 ft | 387 kts | 263° |
| 2026-04-21 12:15 | 43.57651 | 65.55112 | 31763 ft | 387 kts | 263° |
| 2026-04-21 12:15 | 43.57295 | 65.47708 | 31763 ft | 387 kts | 263° |
| 2026-04-21 12:16 | 43.56939 | 65.40300 | 31765 ft | 387 kts | 263° |
| 2026-04-21 12:16 | 43.56576 | 65.32897 | 31767 ft | 387 kts | 263° |
| 2026-04-21 12:17 | 43.56207 | 65.25482 | 31765 ft | 388 kts | 263° |
| 2026-04-21 12:17 | 43.55834 | 65.18067 | 31764 ft | 388 kts | 263° |
| 2026-04-21 12:18 | 43.55455 | 65.10634 | 31762 ft | 389 kts | 262° |
| 2026-04-21 12:18 | 43.55071 | 65.03249 | 31765 ft | 389 kts | 262° |
| 2026-04-21 12:19 | 43.54683 | 64.95810 | 31763 ft | 389 kts | 262° |
| 2026-04-21 12:19 | 43.54294 | 64.88355 | 31764 ft | 390 kts | 262° |
| 2026-04-21 12:20 | 43.53898 | 64.80896 | 31759 ft | 390 kts | 262° |
| 2026-04-21 12:20 | 43.53492 | 64.73431 | 31763 ft | 391 kts | 262° |
| 2026-04-21 12:21 | 43.53078 | 64.65955 | 31763 ft | 391 kts | 262° |
| 2026-04-21 12:21 | 43.52669 | 64.58473 | 31762 ft | 392 kts | 262° |
| 2026-04-21 12:22 | 43.52255 | 64.50978 | 31767 ft | 392 kts | 262° |
| 2026-04-21 12:22 | 43.51830 | 64.43533 | 31770 ft | 393 kts | 261° |
| 2026-04-21 12:23 | 43.51402 | 64.36031 | 31769 ft | 393 kts | 261° |
| 2026-04-21 12:23 | 43.50963 | 64.28523 | 31770 ft | 393 kts | 261° |
| 2026-04-21 12:24 | 43.50520 | 64.21012 | 31771 ft | 394 kts | 261° |
| 2026-04-21 12:24 | 43.50071 | 64.13497 | 31775 ft | 394 kts | 261° |
| 2026-04-21 12:25 | 43.49616 | 64.05972 | 31779 ft | 394 kts | 261° |
| 2026-04-21 12:25 | 43.49161 | 63.98440 | 31783 ft | 395 kts | 261° |
| 2026-04-21 12:26 | 43.48701 | 63.90903 | 31784 ft | 395 kts | 261° |
| 2026-04-21 12:26 | 43.48231 | 63.83370 | 31784 ft | 395 kts | 261° |
| 2026-04-21 12:27 | 43.47762 | 63.75830 | 31793 ft | 395 kts | 261° |
| 2026-04-21 12:27 | 43.47280 | 63.68289 | 31797 ft | 395 kts | 260° |
| 2026-04-21 12:28 | 43.46789 | 63.60753 | 31796 ft | 396 kts | 260° |
| 2026-04-21 12:28 | 43.46301 | 63.53248 | 31798 ft | 396 kts | 260° |
| 2026-04-21 12:29 | 43.45810 | 63.45690 | 31802 ft | 396 kts | 260° |
| 2026-04-21 12:29 | 43.45310 | 63.38145 | 31801 ft | 396 kts | 260° |
| 2026-04-21 12:30 | 43.44809 | 63.30593 | 31803 ft | 396 kts | 260° |
| 2026-04-21 12:30 | 43.44300 | 63.23039 | 31805 ft | 396 kts | 259° |
| 2026-04-21 12:31 | 43.43787 | 63.15489 | 31806 ft | 397 kts | 259° |
| 2026-04-21 12:31 | 43.43266 | 63.07930 | 31807 ft | 397 kts | 259° |
| 2026-04-21 12:32 | 43.42739 | 63.00373 | 31803 ft | 397 kts | 259° |
| 2026-04-21 12:32 | 43.42213 | 62.92858 | 31805 ft | 397 kts | 259° |
| 2026-04-21 12:33 | 43.41676 | 62.85287 | 31806 ft | 398 kts | 259° |
| 2026-04-21 12:33 | 43.41132 | 62.77675 | 31803 ft | 398 kts | 259° |
| 2026-04-21 12:34 | 43.40590 | 62.70147 | 31805 ft | 398 kts | 259° |
| 2026-04-21 12:34 | 43.40036 | 62.62559 | 31807 ft | 399 kts | 259° |
| 2026-04-21 12:35 | 43.39474 | 62.54967 | 31805 ft | 399 kts | 259° |
| 2026-04-21 12:35 | 43.38913 | 62.47373 | 31805 ft | 400 kts | 259° |
| 2026-04-21 12:36 | 43.38350 | 62.39767 | 31813 ft | 400 kts | 259° |
| 2026-04-21 12:36 | 43.37774 | 62.32149 | 31812 ft | 401 kts | 259° |
| 2026-04-21 12:37 | 43.37191 | 62.24527 | 31813 ft | 401 kts | 259° |
| 2026-04-21 12:37 | 43.36595 | 62.16906 | 31814 ft | 401 kts | 259° |
| 2026-04-21 12:38 | 43.36003 | 62.09272 | 31811 ft | 402 kts | 259° |
| 2026-04-21 12:38 | 43.35409 | 62.01630 | 31815 ft | 402 kts | 259° |
| 2026-04-21 12:39 | 43.34811 | 61.93976 | 31813 ft | 403 kts | 259° |
| 2026-04-21 12:39 | 43.34209 | 61.86371 | 31809 ft | 403 kts | 258° |
| 2026-04-21 12:40 | 43.33594 | 61.78704 | 31815 ft | 404 kts | 258° |
| 2026-04-21 12:40 | 43.32970 | 61.71027 | 31817 ft | 405 kts | 258° |
| 2026-04-21 12:41 | 43.32344 | 61.63342 | 31817 ft | 405 kts | 258° |
| 2026-04-21 12:41 | 43.31704 | 61.55652 | 31813 ft | 406 kts | 258° |
| 2026-04-21 12:42 | 43.31062 | 61.47952 | 31817 ft | 406 kts | 258° |
| 2026-04-21 12:42 | 43.30421 | 61.40229 | 31819 ft | 407 kts | 258° |
| 2026-04-21 12:43 | 43.29773 | 61.32497 | 31816 ft | 408 kts | 258° |
| 2026-04-21 12:43 | 43.29116 | 61.24814 | 31818 ft | 408 kts | 258° |
| 2026-04-21 12:44 | 43.28446 | 61.17064 | 31821 ft | 409 kts | 258° |
| 2026-04-21 12:44 | 43.27776 | 61.09301 | 31820 ft | 410 kts | 258° |
| 2026-04-21 12:45 | 43.27091 | 61.01528 | 31822 ft | 411 kts | 258° |
| 2026-04-21 12:45 | 43.26411 | 60.93746 | 31821 ft | 411 kts | 258° |
| 2026-04-21 12:46 | 43.25726 | 60.85955 | 31825 ft | 412 kts | 258° |
| 2026-04-21 12:46 | 43.25029 | 60.78158 | 31823 ft | 412 kts | 258° |
| 2026-04-21 12:47 | 43.24328 | 60.70354 | 31827 ft | 412 kts | 258° |
| 2026-04-21 12:47 | 43.23611 | 60.62541 | 31831 ft | 413 kts | 258° |
| 2026-04-21 12:48 | 43.22901 | 60.54775 | 31835 ft | 413 kts | 258° |
| 2026-04-21 12:48 | 43.22181 | 60.46961 | 31836 ft | 413 kts | 258° |
| 2026-04-21 12:49 | 43.21453 | 60.39125 | 31845 ft | 414 kts | 258° |
| 2026-04-21 12:49 | 43.20725 | 60.31298 | 31837 ft | 414 kts | 258° |
| 2026-04-21 12:50 | 43.19989 | 60.23471 | 31837 ft | 414 kts | 258° |
| 2026-04-21 12:50 | 43.19246 | 60.15634 | 31837 ft | 414 kts | 258° |
| 2026-04-21 12:51 | 43.18502 | 60.07800 | 31848 ft | 415 kts | 258° |
| 2026-04-21 12:51 | 43.17749 | 59.99972 | 31846 ft | 415 kts | 258° |
| 2026-04-21 12:52 | 43.16989 | 59.92137 | 31851 ft | 415 kts | 258° |
| 2026-04-21 12:52 | 43.16221 | 59.84302 | 31848 ft | 415 kts | 258° |
| 2026-04-21 12:53 | 43.15451 | 59.76469 | 31861 ft | 415 kts | 258° |
| 2026-04-21 12:53 | 43.14675 | 59.68700 | 31858 ft | 415 kts | 258° |
| 2026-04-21 12:54 | 43.13894 | 59.60854 | 31865 ft | 415 kts | 258° |
| 2026-04-21 12:54 | 43.13112 | 59.53044 | 31856 ft | 414 kts | 258° |
| 2026-04-21 12:55 | 43.12314 | 59.45228 | 31857 ft | 414 kts | 258° |
| 2026-04-21 12:55 | 43.11519 | 59.37433 | 31856 ft | 414 kts | 258° |
| 2026-04-21 12:56 | 43.10856 | 59.30922 | 31859 ft | 414 kts | 258° |
| 2026-04-21 12:56 | 43.09920 | 59.21837 | 31860 ft | 414 kts | 258° |
| 2026-04-21 12:57 | 43.09245 | 59.15344 | 31861 ft | 414 kts | 258° |
| 2026-04-21 12:57 | 43.08298 | 59.06279 | 31865 ft | 413 kts | 257° |
| 2026-04-21 12:58 | 43.07606 | 58.99781 | 31866 ft | 413 kts | 257° |
| 2026-04-21 12:58 | 43.06780 | 58.92031 | 31865 ft | 413 kts | 257° |
| 2026-04-21 12:59 | 43.05956 | 58.84278 | 31865 ft | 412 kts | 257° |
| 2026-04-21 12:59 | 43.05122 | 58.76542 | 31869 ft | 412 kts | 257° |
| 2026-04-21 13:00 | 43.04274 | 58.68754 | 31870 ft | 411 kts | 257° |
| 2026-04-21 13:00 | 43.03435 | 58.61061 | 31868 ft | 411 kts | 257° |
| 2026-04-21 13:01 | 43.02596 | 58.53342 | 31869 ft | 411 kts | 257° |
| 2026-04-21 13:01 | 43.01748 | 58.45618 | 31869 ft | 411 kts | 257° |
| 2026-04-21 13:02 | 43.00896 | 58.37860 | 31870 ft | 411 kts | 257° |
| 2026-04-21 13:02 | 42.99598 | 58.26315 | 31876 ft | 410 kts | 257° |
| 2026-04-21 13:03 | 42.98723 | 58.18628 | 31875 ft | 410 kts | 257° |
| 2026-04-21 13:03 | 42.97843 | 58.10911 | 31878 ft | 410 kts | 257° |
| 2026-04-21 13:04 | 42.96970 | 58.03214 | 31873 ft | 410 kts | 257° |
| 2026-04-21 13:04 | 42.96094 | 57.95554 | 31873 ft | 410 kts | 257° |
| 2026-04-21 13:05 | 42.95193 | 57.87836 | 31870 ft | 411 kts | 257° |
| 2026-04-21 13:05 | 42.94299 | 57.80180 | 31869 ft | 411 kts | 257° |
| 2026-04-21 13:06 | 42.93401 | 57.72446 | 31869 ft | 411 kts | 257° |
| 2026-04-21 13:06 | 42.92495 | 57.64737 | 31869 ft | 411 kts | 257° |
| 2026-04-21 13:07 | 42.91588 | 57.57070 | 31870 ft | 412 kts | 257° |
| 2026-04-21 13:07 | 42.90674 | 57.49342 | 31870 ft | 412 kts | 257° |
| 2026-04-21 13:08 | 42.89748 | 57.41642 | 31873 ft | 412 kts | 257° |
| 2026-04-21 13:08 | 42.88810 | 57.33899 | 31871 ft | 412 kts | 257° |
| 2026-04-21 13:09 | 42.87877 | 57.26204 | 31875 ft | 413 kts | 256° |
| 2026-04-21 13:09 | 42.86932 | 57.18468 | 31874 ft | 413 kts | 256° |
| 2026-04-21 13:10 | 42.85987 | 57.10757 | 31877 ft | 413 kts | 256° |
| 2026-04-21 13:10 | 42.85040 | 57.03056 | 31879 ft | 413 kts | 256° |
| 2026-04-21 13:11 | 42.84084 | 56.95345 | 31882 ft | 413 kts | 256° |
| 2026-04-21 13:11 | 42.83122 | 56.87658 | 31880 ft | 413 kts | 256° |
| 2026-04-21 13:12 | 42.82161 | 56.79956 | 31885 ft | 413 kts | 256° |
| 2026-04-21 13:12 | 42.81189 | 56.72226 | 31882 ft | 413 kts | 256° |
| 2026-04-21 13:13 | 42.80215 | 56.64550 | 31881 ft | 414 kts | 256° |
| 2026-04-21 13:13 | 42.79226 | 56.56831 | 31883 ft | 414 kts | 256° |
| 2026-04-21 13:14 | 42.78233 | 56.49122 | 31880 ft | 414 kts | 256° |
| 2026-04-21 13:14 | 42.77232 | 56.41373 | 31880 ft | 415 kts | 256° |
| 2026-04-21 13:15 | 42.76234 | 56.33682 | 31881 ft | 415 kts | 256° |
| 2026-04-21 13:15 | 42.75224 | 56.25915 | 31881 ft | 415 kts | 256° |
| 2026-04-21 13:16 | 42.74213 | 56.18218 | 31887 ft | 416 kts | 256° |
| 2026-04-21 13:16 | 42.73190 | 56.10451 | 31875 ft | 416 kts | 256° |
| 2026-04-21 13:17 | 42.72168 | 56.02731 | 31891 ft | 416 kts | 256° |
| 2026-04-21 13:17 | 42.71141 | 55.94993 | 31894 ft | 416 kts | 256° |
| 2026-04-21 13:18 | 42.70095 | 55.87225 | 31889 ft | 416 kts | 256° |
| 2026-04-21 13:18 | 42.69051 | 55.79494 | 31901 ft | 417 kts | 256° |
| 2026-04-21 13:19 | 42.68000 | 55.71740 | 31908 ft | 417 kts | 255° |
| 2026-04-21 13:19 | 42.66947 | 55.64023 | 31910 ft | 417 kts | 255° |
| 2026-04-21 13:20 | 42.65890 | 55.56289 | 31907 ft | 417 kts | 255° |
| 2026-04-21 13:20 | 42.64821 | 55.48514 | 31920 ft | 417 kts | 255° |
| 2026-04-21 13:21 | 42.63752 | 55.40825 | 31918 ft | 417 kts | 255° |
| 2026-04-21 13:21 | 42.62672 | 55.33050 | 31922 ft | 417 kts | 255° |
| 2026-04-21 13:22 | 42.61589 | 55.25298 | 31915 ft | 417 kts | 255° |
| 2026-04-21 13:22 | 42.60504 | 55.17602 | 31921 ft | 417 kts | 255° |
| 2026-04-21 13:23 | 42.59420 | 55.09881 | 31928 ft | 417 kts | 255° |
| 2026-04-21 13:23 | 42.58323 | 55.02111 | 31930 ft | 417 kts | 255° |
| 2026-04-21 13:24 | 42.57222 | 54.94393 | 31925 ft | 417 kts | 255° |
| 2026-04-21 13:24 | 42.56108 | 54.86645 | 31930 ft | 418 kts | 255° |
| 2026-04-21 13:25 | 42.54997 | 54.78954 | 31933 ft | 418 kts | 254° |
| 2026-04-21 13:25 | 42.53868 | 54.71223 | 31930 ft | 418 kts | 254° |
| 2026-04-21 13:26 | 42.52753 | 54.63509 | 31930 ft | 418 kts | 254° |
| 2026-04-21 13:26 | 42.51626 | 54.55785 | 31931 ft | 418 kts | 254° |
| 2026-04-21 13:27 | 42.50483 | 54.48007 | 31928 ft | 419 kts | 254° |
| 2026-04-21 13:27 | 42.49327 | 54.40265 | 31927 ft | 419 kts | 254° |
| 2026-04-21 13:28 | 42.48182 | 54.32574 | 31930 ft | 419 kts | 254° |
| 2026-04-21 13:28 | 42.47030 | 54.24829 | 31930 ft | 420 kts | 254° |
| 2026-04-21 13:29 | 42.45879 | 54.17072 | 31929 ft | 420 kts | 254° |
| 2026-04-21 13:29 | 42.44712 | 54.09331 | 31931 ft | 420 kts | 254° |
| 2026-04-21 13:30 | 42.43537 | 54.01569 | 31929 ft | 420 kts | 254° |
| 2026-04-21 13:30 | 42.42354 | 53.93807 | 31928 ft | 420 kts | 254° |
| 2026-04-21 13:31 | 42.41173 | 53.86088 | 31933 ft | 420 kts | 254° |
| 2026-04-21 13:31 | 42.39982 | 53.78345 | 31926 ft | 421 kts | 253° |
| 2026-04-21 13:32 | 42.38815 | 53.70587 | 31919 ft | 423 kts | 258° |
| 2026-04-21 13:32 | 42.38808 | 53.66578 | 31921 ft | 432 kts | 274° |
| 2026-04-21 13:32 | 42.39681 | 53.62648 | 31916 ft | 444 kts | 291° |
| 2026-04-21 13:33 | 42.41403 | 53.59129 | 31914 ft | 453 kts | 303° |
| 2026-04-21 13:33 | 42.43384 | 53.55792 | 31915 ft | 455 kts | 303° |
| 2026-04-21 13:33 | 42.47370 | 53.49126 | 31916 ft | 456 kts | 303° |
| 2026-04-21 13:34 | 42.51366 | 53.42437 | 31918 ft | 457 kts | 303° |
| 2026-04-21 13:34 | 42.55344 | 53.35716 | 31924 ft | 457 kts | 303° |
| 2026-04-21 13:35 | 42.59316 | 53.28964 | 31929 ft | 458 kts | 303° |
| 2026-04-21 13:35 | 42.63286 | 53.22220 | 31532 ft | 456 kts | 303° |
| 2026-04-21 13:36 | 42.65270 | 53.18844 | 30839 ft | 458 kts | 303° |
| 2026-04-21 13:36 | 42.67255 | 53.15456 | 30202 ft | 458 kts | 303° |
| 2026-04-21 13:36 | 42.69231 | 53.12081 | 29668 ft | 455 kts | 303° |
| 2026-04-21 13:36 | 42.71193 | 53.08732 | 29093 ft | 451 kts | 303° |
| 2026-04-21 13:37 | 42.73119 | 53.05452 | 28561 ft | 447 kts | 303° |
| 2026-04-21 13:37 | 42.75049 | 53.02157 | 28012 ft | 443 kts | 303° |
| 2026-04-21 13:37 | 42.76956 | 52.98886 | 27477 ft | 440 kts | 303° |
| 2026-04-21 13:37 | 42.78850 | 52.95634 | 26952 ft | 436 kts | 303° |
| 2026-04-21 13:38 | 42.80727 | 52.92405 | 26433 ft | 433 kts | 303° |
| 2026-04-21 13:38 | 42.82591 | 52.89203 | 25918 ft | 430 kts | 303° |
| 2026-04-21 13:38 | 42.84439 | 52.86021 | 25420 ft | 426 kts | 303° |
| 2026-04-21 13:38 | 42.86272 | 52.82862 | 24920 ft | 423 kts | 303° |
| 2026-04-21 13:39 | 42.88093 | 52.79720 | 24451 ft | 422 kts | 303° |
| 2026-04-21 13:39 | 42.89959 | 52.76487 | 23988 ft | 445 kts | 303° |
| 2026-04-21 13:39 | 42.91913 | 52.73085 | 23518 ft | 463 kts | 304° |
| 2026-04-21 13:39 | 42.93911 | 52.69618 | 22971 ft | 465 kts | 304° |
| 2026-04-21 13:40 | 42.95915 | 52.66160 | 22433 ft | 463 kts | 304° |
| 2026-04-21 13:40 | 42.97912 | 52.62727 | 21906 ft | 460 kts | 304° |
| 2026-04-21 13:40 | 42.99890 | 52.59317 | 21386 ft | 456 kts | 304° |
| 2026-04-21 13:40 | 43.01845 | 52.55933 | 20880 ft | 452 kts | 304° |
| 2026-04-21 13:41 | 43.03780 | 52.52566 | 20385 ft | 449 kts | 304° |
| 2026-04-21 13:41 | 43.05696 | 52.49219 | 19887 ft | 445 kts | 304° |
| 2026-04-21 13:41 | 43.07598 | 52.45884 | 19407 ft | 442 kts | 304° |
| 2026-04-21 13:41 | 43.09482 | 52.42580 | 18927 ft | 439 kts | 305° |
| 2026-04-21 13:42 | 43.11353 | 52.39297 | 18458 ft | 436 kts | 305° |
| 2026-04-21 13:42 | 43.13212 | 52.36037 | 18033 ft | 433 kts | 305° |
| 2026-04-21 13:42 | 43.15064 | 52.32795 | 17610 ft | 431 kts | 305° |
| 2026-04-21 13:42 | 43.16907 | 52.29573 | 17177 ft | 428 kts | 305° |
| 2026-04-21 13:43 | 43.18711 | 52.26411 | 16774 ft | 425 kts | 305° |
| 2026-04-21 13:43 | 43.20522 | 52.23227 | 16365 ft | 422 kts | 305° |
| 2026-04-21 13:43 | 43.22320 | 52.20060 | 15962 ft | 420 kts | 305° |
| 2026-04-21 13:43 | 43.24105 | 52.16909 | 15564 ft | 417 kts | 305° |
| 2026-04-21 13:44 | 43.25878 | 52.13773 | 15168 ft | 414 kts | 305° |
| 2026-04-21 13:44 | 43.27638 | 52.10658 | 14778 ft | 411 kts | 305° |
| 2026-04-21 13:44 | 43.29388 | 52.07563 | 14459 ft | 409 kts | 305° |
| 2026-04-21 13:44 | 43.31126 | 52.04489 | 14155 ft | 407 kts | 305° |
| 2026-04-21 13:45 | 43.32855 | 52.01427 | 13840 ft | 405 kts | 305° |
| 2026-04-21 13:45 | 43.34578 | 51.98378 | 13512 ft | 403 kts | 305° |
| 2026-04-21 13:45 | 43.36290 | 51.95348 | 13165 ft | 401 kts | 305° |
| 2026-04-21 13:45 | 43.37992 | 51.92326 | 12824 ft | 399 kts | 304° |
| 2026-04-21 13:46 | 43.39685 | 51.89315 | 12482 ft | 397 kts | 304° |
| 2026-04-21 13:46 | 43.41367 | 51.86320 | 12156 ft | 395 kts | 304° |
| 2026-04-21 13:46 | 43.42478 | 51.84343 | 11920 ft | 394 kts | 304° |
| 2026-04-21 13:46 | 43.44135 | 51.81391 | 11609 ft | 392 kts | 304° |
| 2026-04-21 13:47 | 43.45811 | 51.78405 | 11291 ft | 390 kts | 304° |
| 2026-04-21 13:47 | 43.47461 | 51.75459 | 11001 ft | 388 kts | 304° |
| 2026-04-21 13:47 | 43.49106 | 51.72516 | 10959 ft | 387 kts | 304° |
| 2026-04-21 13:47 | 43.50748 | 51.69571 | 10971 ft | 388 kts | 304° |
| 2026-04-21 13:48 | 43.52391 | 51.66623 | 10969 ft | 388 kts | 304° |
| 2026-04-21 13:48 | 43.54033 | 51.63673 | 10971 ft | 388 kts | 304° |
| 2026-04-21 13:48 | 43.55674 | 51.60725 | 10972 ft | 388 kts | 305° |
| 2026-04-21 13:48 | 43.57316 | 51.57776 | 10976 ft | 388 kts | 305° |
| 2026-04-21 13:49 | 43.58959 | 51.54822 | 10973 ft | 388 kts | 305° |
| 2026-04-21 13:49 | 43.60601 | 51.51867 | 10858 ft | 388 kts | 305° |
| 2026-04-21 13:49 | 43.62257 | 51.48880 | 10592 ft | 396 kts | 305° |
| 2026-04-21 13:49 | 43.63932 | 51.45851 | 10336 ft | 397 kts | 305° |
| 2026-04-21 13:50 | 43.65608 | 51.42822 | 10067 ft | 396 kts | 305° |
| 2026-04-21 13:50 | 43.67274 | 51.39807 | 9789 ft | 394 kts | 305° |
| 2026-04-21 13:50 | 43.68933 | 51.36803 | 9497 ft | 392 kts | 306° |
| 2026-04-21 13:50 | 43.70584 | 51.33807 | 9224 ft | 391 kts | 306° |
| 2026-04-21 13:51 | 43.72227 | 51.30822 | 8900 ft | 389 kts | 306° |
| 2026-04-21 13:51 | 43.73864 | 51.27850 | 8532 ft | 388 kts | 306° |
| 2026-04-21 13:51 | 43.75495 | 51.24887 | 8185 ft | 386 kts | 306° |
| 2026-04-21 13:51 | 43.77119 | 51.21938 | 7814 ft | 384 kts | 306° |
| 2026-04-21 13:52 | 43.78736 | 51.19001 | 7466 ft | 383 kts | 306° |
| 2026-04-21 13:52 | 43.80346 | 51.16070 | 7144 ft | 381 kts | 306° |
| 2026-04-21 13:52 | 43.81945 | 51.13146 | 6821 ft | 380 kts | 306° |
| 2026-04-21 13:52 | 43.83515 | 51.10270 | 6509 ft | 378 kts | 307° |
| 2026-04-21 13:53 | 43.85098 | 51.07375 | 6181 ft | 376 kts | 307° |
| 2026-04-21 13:53 | 43.86668 | 51.04500 | 5836 ft | 373 kts | 307° |
| 2026-04-21 13:53 | 43.88226 | 51.01643 | 5499 ft | 370 kts | 307° |
| 2026-04-21 13:53 | 43.89773 | 50.98803 | 5174 ft | 368 kts | 307° |
| 2026-04-21 13:54 | 43.91313 | 50.95978 | 4843 ft | 366 kts | 307° |
| 2026-04-21 13:54 | 43.92820 | 50.93209 | 4505 ft | 353 kts | 307° |
| 2026-04-21 13:54 | 43.94273 | 50.90533 | 4156 ft | 342 kts | 307° |
| 2026-04-21 13:54 | 43.95688 | 50.87935 | 3831 ft | 332 kts | 309° |
| 2026-04-21 13:55 | 43.97380 | 50.85883 | 3524 ft | 319 kts | 335° |
| 2026-04-21 13:55 | 43.99471 | 50.85287 | 3392 ft | 302 kts | 6° |
| 2026-04-21 13:55 | 44.01371 | 50.86228 | 3265 ft | 286 kts | 38° |
| 2026-04-21 13:55 | 44.02530 | 50.88335 | 3136 ft | 272 kts | 71° |
| 2026-04-21 13:56 | 44.02634 | 50.90878 | 3007 ft | 262 kts | 103° |
| 2026-04-21 13:56 | 44.01819 | 50.93034 | 2973 ft | 249 kts | 136° |
| 2026-04-21 13:56 | 44.00408 | 50.94255 | 3008 ft | 231 kts | 152° |
| 2026-04-21 13:56 | 43.98994 | 50.95264 | 2868 ft | 226 kts | 152° |
| 2026-04-21 13:57 | 43.97620 | 50.96250 | 2619 ft | 219 kts | 151° |
| 2026-04-21 13:57 | 43.96285 | 50.97209 | 2394 ft | 213 kts | 151° |
| 2026-04-21 13:57 | 43.94980 | 50.98145 | 2136 ft | 210 kts | 151° |
| 2026-04-21 13:57 | 43.93718 | 50.99050 | 1870 ft | 202 kts | 151° |
| 2026-04-21 13:58 | 43.92499 | 50.99923 | 1641 ft | 185 kts | 152° |
| 2026-04-21 13:58 | 43.91408 | 51.00705 | 1436 ft | 170 kts | 152° |
| 2026-04-21 13:58 | 43.90383 | 51.01440 | 1216 ft | 163 kts | 152° |
| 2026-04-21 13:58 | 43.89481 | 51.02345 | 1025 ft | 159 kts | 136° |
| 2026-04-21 13:59 | 43.88747 | 51.03480 | 808 ft | 159 kts | 128° |
| 2026-04-21 13:59 | 43.88090 | 51.04713 | 588 ft | 158 kts | 125° |
| 2026-04-21 13:59 | 43.87465 | 51.05960 | 409 ft | 158 kts | 125° |
| 2026-04-21 13:59 | 43.86874 | 51.07234 | 200 ft | 156 kts | 123° |
| 2026-04-21 14:00 | 43.86295 | 51.08472 | 63 ft | 140 kts | 123° |
| 2026-04-21 14:00 | 43.85909 | 51.09293 | 65 ft | 47 kts | 123° |
| 2026-04-21 14:00 | 43.85805 | 51.09438 | 73 ft | 9 kts | 202° |
| 2026-04-21 14:00 | 43.85742 | 51.09387 | 71 ft | 12 kts | 210° |
| 2026-04-21 14:01 | 43.85669 | 51.09328 | 68 ft | 13 kts | 211° |
| 2026-04-21 14:01 | 43.85617 | 51.09228 | 69 ft | 19 kts | 277° |
| 2026-04-21 14:01 | 43.85705 | 51.09011 | 65 ft | 29 kts | 303° |
| 2026-04-21 14:01 | 43.85772 | 51.08834 | 64 ft | 18 kts | 291° |
| 2026-04-21 14:02 | 43.85846 | 51.08764 | 66 ft | 8 kts | 16° |
| 2026-04-21 14:02 | 43.85864 | 51.08777 | 71 ft | 0 kts | 28° |